Time;durP1;ratioP1;P1;durP2;ratioP2;P2;SDS_P1;SDS_P2;PMS_P1;PMS_P2;Temp;Humidity;BMP_temperature;BMP_pressure;BME280_temperature;BME280_humidity;BME280_pressure;Samples;Min_cycle;Max_cycle;Signal;HPM_P1;HPM_P2
2021/12/29 00:01:20;;;;;;;11.40;1.80;;;;;;;9.62;66.44;94042.34;5020628;28;20104;-63
2021/12/29 00:03:46;;;;;;;8.55;1.77;;;;;;;10.20;67.12;94095.63;5025852;28;20541;-62
2021/12/29 00:06:11;;;;;;;6.63;1.30;;;;;;;9.49;65.19;94029.31;5022375;28;20030;-62
2021/12/29 00:08:37;;;;;;;7.47;1.35;;;;;;;10.07;65.58;94086.81;5028838;28;20480;-62
2021/12/29 00:11:03;;;;;;;9.13;1.52;;;;;;;9.66;65.93;93957.50;5028932;28;20500;-62
2021/12/29 00:13:28;;;;;;;8.82;1.90;;;;;;;10.35;66.23;94100.34;5029422;28;20479;-62
2021/12/29 00:15:59;;;;;;;7.85;1.70;;;;;;;9.90;65.90;94047.88;5021685;28;20018;-63
2021/12/29 00:18:29;;;;;;;6.35;1.20;;;;;;;9.82;66.29;94095.75;5026436;28;20108;-63
2021/12/29 00:20:57;;;;;;;7.35;2.15;;;;;;;9.71;65.66;94068.03;5020803;28;20063;-63
2021/12/29 00:23:23;;;;;;;9.80;1.75;;;;;;;9.95;66.21;94093.94;5029197;28;20029;-63
2021/12/29 00:25:49;;;;;;;8.43;1.42;;;;;;;9.50;66.25;94079.44;5029398;28;20021;-63
2021/12/29 00:28:15;;;;;;;7.65;1.30;;;;;;;9.62;67.21;94045.00;5028801;28;20021;-63
2021/12/29 00:30:42;;;;;;;7.43;1.45;;;;;;;10.09;65.50;94097.13;5021427;28;20034;-63
2021/12/29 00:33:08;;;;;;;8.75;1.83;;;;;;;8.51;67.36;93922.59;5026492;28;20386;-63
2021/12/29 00:35:35;;;;;;;10.07;2.10;;;;;;;9.28;66.09;93934.56;5020648;28;20033;-62
2021/12/29 00:38:03;;;;;;;10.98;1.90;;;;;;;9.97;66.37;94089.09;5029081;28;20479;-63
2021/12/29 00:40:29;;;;;;;14.38;1.73;;;;;;;9.51;67.00;94102.22;5028585;28;20079;-62
2021/12/29 00:42:56;;;;;;;8.95;1.30;;;;;;;9.95;66.20;94093.94;5029265;28;20026;-63
2021/12/29 00:45:21;;;;;;;8.60;1.70;;;;;;;9.53;66.20;94035.53;5024647;28;20402;-62
2021/12/29 00:47:48;;;;;;;8.93;1.30;;;;;;;10.04;66.08;94132.63;5023884;28;20104;-63
2021/12/29 00:50:15;;;;;;;8.63;1.75;;;;;;;9.77;65.68;94045.50;5020696;28;20022;-63
2021/12/29 00:52:44;;;;;;;10.18;1.65;;;;;;;9.63;65.08;94006.72;5014560;28;20029;-63
2021/12/29 00:55:10;;;;;;;7.32;2.10;;;;;;;9.61;63.96;94016.09;5032683;28;20045;-64
2021/12/29 00:57:35;;;;;;;6.85;1.50;;;;;;;10.26;64.10;94099.66;5032746;28;20071;-63
2021/12/29 01:00:02;;;;;;;11.27;1.40;;;;;;;9.93;64.27;94081.00;5030634;28;20128;-63
2021/12/29 01:02:27;;;;;;;10.57;1.90;;;;;;;10.48;63.78;94113.69;5026342;28;20025;-62
2021/12/29 01:04:53;;;;;;;7.00;1.70;;;;;;;10.13;61.78;94036.91;5023186;28;20029;-62
2021/12/29 01:07:19;;;;;;;8.10;2.22;;;;;;;8.85;62.86;93935.66;5032575;28;20040;-63
2021/12/29 01:09:44;;;;;;;14.70;1.98;;;;;;;9.16;62.67;93998.16;5031707;28;20021;-63
2021/12/29 01:12:11;;;;;;;6.20;1.55;;;;;;;9.46;62.33;93993.56;5032500;28;20501;-63
2021/12/29 01:14:41;;;;;;;5.68;1.60;;;;;;;9.64;62.08;94063.25;5032615;28;20053;-63
2021/12/29 01:17:06;;;;;;;9.13;2.10;;;;;;;10.71;61.01;94141.47;5025172;28;20029;-63
2021/12/29 01:19:32;;;;;;;10.75;1.40;;;;;;;9.78;60.05;94037.22;5022918;28;20076;-63
2021/12/29 01:22:00;;;;;;;7.28;1.35;;;;;;;9.62;61.29;94026.41;5031324;28;20021;-63
2021/12/29 01:24:28;;;;;;;7.35;1.75;;;;;;;10.68;59.69;94126.16;5032327;28;20446;-62
2021/12/29 01:26:54;;;;;;;5.40;1.85;;;;;;;10.02;60.58;94025.91;5014237;28;20470;-63
2021/12/29 01:29:20;;;;;;;5.68;1.35;;;;;;;9.65;59.73;94011.69;5031375;28;20030;-63
2021/12/29 01:31:46;;;;;;;8.32;1.80;;;;;;;10.53;59.72;94140.06;5025607;28;20041;-62
2021/12/29 01:34:13;;;;;;;5.32;1.20;;;;;;;10.66;58.91;94154.97;5026154;28;20022;-63
2021/12/29 01:36:39;;;;;;;5.93;1.20;;;;;;;10.71;59.89;94157.41;5028437;28;20061;-62
2021/12/29 01:39:13;;;;;;;8.57;2.08;;;;;;;10.74;58.38;94146.09;5031179;28;20028;-63
2021/12/29 01:41:39;;;;;;;8.10;1.50;;;;;;;10.61;58.79;94181.75;5031803;28;20373;-63
2021/12/29 01:44:06;;;;;;;14.15;1.67;;;;;;;11.15;58.01;94166.47;5031752;28;20026;-63
2021/12/29 01:46:31;;;;;;;8.48;1.92;;;;;;;11.24;57.80;94171.72;5026702;28;20055;-64
2021/12/29 01:48:57;;;;;;;4.78;1.63;;;;;;;10.57;58.26;94149.72;5026065;28;20530;-63
2021/12/29 01:51:23;;;;;;;3.95;0.90;;;;;;;10.35;58.28;94150.84;5011991;28;20036;-63
2021/12/29 01:54:02;;;;;;;7.10;1.60;;;;;;;10.67;59.07;94193.75;4994275;28;20030;-63
2021/12/29 01:56:30;;;;;;;8.60;1.83;;;;;;;10.78;57.24;94200.22;5011859;28;20037;-63
2021/12/29 01:58:56;;;;;;;10.80;1.75;;;;;;;10.66;58.02;94174.34;5011286;28;20022;-63
2021/12/29 02:01:22;;;;;;;7.60;1.75;;;;;;;10.74;57.32;94225.13;5016472;28;20030;-63
2021/12/29 02:03:48;;;;;;;5.13;1.65;;;;;;;10.49;56.92;94152.44;5026920;28;20024;-63
2021/12/29 02:06:13;;;;;;;5.05;1.38;;;;;;;10.40;57.86;94174.59;5024575;28;20028;-63
2021/12/29 02:08:39;;;;;;;7.22;1.98;;;;;;;9.93;57.14;94043.00;5030798;28;20075;-63
2021/12/29 02:11:07;;;;;;;4.05;0.80;;;;;;;10.43;57.67;94194.41;5013047;28;20037;-64
2021/12/29 02:13:32;;;;;;;8.23;1.83;;;;;;;10.92;56.19;94168.00;5031248;28;20017;-63
2021/12/29 02:15:58;;;;;;;7.10;1.85;;;;;;;9.79;56.25;93960.97;5027746;28;20029;-62
2021/12/29 02:18:25;;;;;;;5.65;1.38;;;;;;;9.98;58.73;94151.72;5028191;28;20025;-62
2021/12/29 02:20:55;;;;;;;8.10;1.55;;;;;;;9.98;57.88;94120.66;5022435;28;20036;-62
2021/12/29 02:23:45;;;;;;;7.05;2.80;;;;;;;10.28;57.91;94150.59;5031233;28;20568;-63
2021/12/29 02:26:13;;;;;;;7.70;1.38;;;;;;;10.16;58.80;94171.78;5013204;28;20029;-62
2021/12/29 02:28:43;;;;;;;9.85;1.90;;;;;;;10.29;58.14;94165.47;5030286;28;20061;-63
2021/12/29 02:31:08;;;;;;;12.40;1.88;;;;;;;10.92;58.04;94208.69;5027592;28;20189;-63
2021/12/29 02:33:35;;;;;;;8.27;1.55;;;;;;;10.63;57.46;94195.50;5028494;28;20033;-64
2021/12/29 02:36:03;;;;;;;5.93;1.40;;;;;;;10.87;57.76;94226.72;5022422;28;20088;-63
2021/12/29 02:38:34;;;;;;;6.50;1.73;;;;;;;10.82;57.14;94209.09;5030448;28;20095;-63
2021/12/29 02:41:03;;;;;;;6.05;1.52;;;;;;;10.55;58.95;94245.00;5030041;28;20100;-63
2021/12/29 02:43:32;;;;;;;10.25;2.20;;;;;;;10.35;57.44;94150.09;5012891;28;20021;-63
2021/12/29 02:46:00;;;;;;;7.00;1.40;;;;;;;10.14;58.71;94158.81;5028230;28;20026;-64
2021/12/29 02:48:34;;;;;;;6.90;1.60;;;;;;;11.12;57.70;94231.03;5027455;28;20029;-61
2021/12/29 02:51:01;;;;;;;7.82;1.55;;;;;;;10.82;58.14;94261.53;5021846;28;20033;-61
2021/12/29 02:53:28;;;;;;;12.25;1.92;;;;;;;11.08;58.32;94259.41;5012978;28;20048;-61
2021/12/29 02:55:54;;;;;;;5.30;1.00;;;;;;;10.36;59.42;94244.66;5012910;28;20053;-61
2021/12/29 02:58:22;;;;;;;7.85;1.55;;;;;;;9.86;59.91;94141.81;5030303;28;20736;-61
2021/12/29 03:00:48;;;;;;;10.50;1.73;;;;;;;10.53;59.91;94291.63;5027947;28;20115;-61
2021/12/29 03:03:19;;;;;;;7.97;1.33;;;;;;;9.80;61.24;94233.41;5027960;28;20440;-61
2021/12/29 03:05:44;;;;;;;6.70;1.15;;;;;;;9.88;61.81;94214.78;5022035;28;20025;-61
2021/12/29 03:08:11;;;;;;;10.02;1.83;;;;;;;9.52;61.70;94156.06;5030135;28;20025;-63
2021/12/29 03:10:38;;;;;;;4.15;0.80;;;;;;;10.05;62.49;94279.53;5029626;28;20030;-61
2021/12/29 03:13:04;;;;;;;11.48;1.23;;;;;;;10.48;61.64;94259.91;5029862;28;20025;-63
2021/12/29 03:15:29;;;;;;;4.43;0.80;;;;;;;9.76;63.41;94273.09;5030228;28;20386;-62
2021/12/29 03:17:55;;;;;;;6.75;1.15;;;;;;;9.27;64.80;94226.78;5026492;28;20030;-65
2021/12/29 03:20:21;;;;;;;5.28;0.65;;;;;;;9.50;64.82;94280.41;5022332;28;20022;-62
2021/12/29 03:22:46;;;;;;;4.97;1.40;;;;;;;10.17;62.29;94303.53;5027662;28;20106;-62
2021/12/29 03:25:12;;;;;;;8.48;1.20;;;;;;;9.52;62.84;94220.59;5030019;28;20051;-62
2021/12/29 03:27:38;;;;;;;6.53;0.93;;;;;;;9.89;63.07;94300.56;5011976;28;20491;-63
2021/12/29 03:30:03;;;;;;;4.53;0.90;;;;;;;9.97;61.30;94275.81;5029312;28;20026;-62
2021/12/29 03:32:40;;;;;;;3.80;1.27;;;;;;;9.78;62.57;94331.22;5021023;28;20052;-61
2021/12/29 03:35:06;;;;;;;3.40;0.70;;;;;;;9.92;61.25;94286.63;5011547;28;20137;-61
2021/12/29 03:37:32;;;;;;;7.53;1.02;;;;;;;9.95;62.13;94323.19;5025385;28;20029;-62
2021/12/29 03:39:57;;;;;;;6.15;1.00;;;;;;;10.33;60.59;94327.72;5028468;28;20115;-62
2021/12/29 03:42:23;;;;;;;4.28;0.60;;;;;;;10.20;60.03;94292.28;5028486;28;20030;-62
2021/12/29 03:44:48;;;;;;;4.53;0.70;;;;;;;9.98;61.55;94324.41;5029378;28;20022;-63
2021/12/29 03:47:13;;;;;;;1.88;0.57;;;;;;;10.20;60.95;94316.19;5021205;28;20480;-63
2021/12/29 03:49:39;;;;;;;5.45;0.88;;;;;;;10.04;60.92;94315.19;5026160;28;20022;-60
2021/12/29 03:52:05;;;;;;;4.57;1.05;;;;;;;10.22;61.20;94343.22;5021678;28;20116;-62
2021/12/29 03:54:31;;;;;;;4.88;0.80;;;;;;;10.45;61.58;94327.03;5029590;28;20570;-61
2021/12/29 03:57:00;;;;;;;5.35;0.93;;;;;;;10.26;61.23;94333.53;5029543;28;20112;-61
2021/12/29 03:59:27;;;;;;;3.17;0.88;;;;;;;10.62;59.98;94334.88;5028812;28;20558;-61
2021/12/29 04:01:53;;;;;;;5.93;1.00;;;;;;;10.78;60.33;94346.50;5021609;28;20071;-61
2021/12/29 04:04:19;;;;;;;6.68;1.55;;;;;;;10.70;59.79;94328.75;5027026;28;20115;-61
2021/12/29 04:06:45;;;;;;;4.72;1.20;;;;;;;10.77;59.58;94344.97;5003511;28;20049;-61
2021/12/29 04:09:11;;;;;;;8.43;1.38;;;;;;;10.89;58.85;94338.91;5028414;28;20042;-61
2021/12/29 04:11:36;;;;;;;3.88;0.95;;;;;;;9.64;60.16;94230.53;5029331;28;20030;-61
2021/12/29 04:14:01;;;;;;;5.20;0.85;;;;;;;11.06;59.73;94365.41;5011373;28;20385;-61
2021/12/29 04:16:27;;;;;;;4.25;0.50;;;;;;;10.83;59.61;94362.28;5023663;28;20080;-61
2021/12/29 04:19:06;;;;;;;9.95;1.23;;;;;;;10.14;61.82;94328.88;5007012;28;20404;-61
2021/12/29 04:21:36;;;;;;;5.72;1.38;;;;;;;10.77;59.63;94344.19;5021103;28;20024;-61
2021/12/29 04:24:03;;;;;;;3.88;0.93;;;;;;;10.05;61.13;94314.84;5029318;28;20079;-61
2021/12/29 04:26:31;;;;;;;9.20;1.20;;;;;;;10.16;63.00;94366.53;5014312;28;20486;-61
2021/12/29 04:28:56;;;;;;;2.30;0.73;;;;;;;10.07;62.41;94373.00;5032441;28;20029;-61
2021/12/29 04:31:22;;;;;;;4.93;0.93;;;;;;;9.84;62.28;94300.75;5028813;28;20026;-60
2021/12/29 04:33:49;;;;;;;5.97;1.30;;;;;;;10.40;61.25;94344.72;5021370;28;20036;-60
2021/12/29 04:36:15;;;;;;;2.65;0.90;;;;;;;9.88;62.96;94370.72;5019840;28;20029;-61
2021/12/29 04:38:41;;;;;;;6.75;1.40;;;;;;;10.64;62.07;94389.31;5012893;28;20035;-60
2021/12/29 04:41:06;;;;;;;4.25;0.82;;;;;;;10.45;63.31;94414.78;5012674;28;20130;-60
2021/12/29 04:43:32;;;;;;;3.25;0.80;;;;;;;9.87;65.02;94431.00;5013143;28;20030;-61
2021/12/29 04:45:58;;;;;;;3.72;0.65;;;;;;;9.78;65.88;94417.00;4995060;28;20018;-60
2021/12/29 04:48:25;;;;;;;2.88;1.25;;;;;;;9.81;67.30;94411.03;5025683;28;20483;-60
2021/12/29 04:50:52;;;;;;;7.18;1.20;;;;;;;9.66;66.83;94406.22;5022884;28;20029;-62
2021/12/29 04:53:20;;;;;;;5.35;1.40;;;;;;;10.44;65.34;94426.47;5032829;28;20030;-60
2021/12/29 04:55:49;;;;;;;7.20;1.10;;;;;;;9.66;67.01;94432.78;5032617;28;20025;-60
2021/12/29 04:58:16;;;;;;;2.97;0.93;;;;;;;9.59;66.91;94419.22;5032323;28;20028;-60
2021/12/29 05:00:41;;;;;;;5.70;1.48;;;;;;;9.93;66.99;94426.34;5032222;28;20037;-60
2021/12/29 05:03:07;;;;;;;9.73;1.30;;;;;;;9.62;67.76;94432.66;5025705;28;20531;-60
2021/12/29 05:11:04;;;;;;;6.60;1.55;;;;;;;10.09;65.74;94418.63;4998096;28;20049;-61
2021/12/29 05:13:32;;;;;;;5.53;1.27;;;;;;;9.65;67.63;94433.88;5032476;28;20475;-60
2021/12/29 05:15:58;;;;;;;6.32;1.27;;;;;;;9.65;66.58;94428.56;5032143;28;20025;-60
2021/12/29 05:18:25;;;;;;;5.95;1.23;;;;;;;10.37;64.03;94437.63;5025621;28;20039;-60
2021/12/29 05:20:51;;;;;;;4.75;1.10;;;;;;;9.95;66.67;94448.03;5004600;28;20014;-60
2021/12/29 05:23:16;;;;;;;6.03;1.10;;;;;;;9.88;65.96;94445.88;5032115;28;20564;-60
2021/12/29 05:25:42;;;;;;;6.60;1.02;;;;;;;10.29;64.26;94459.72;5032318;28;20106;-60
2021/12/29 05:28:08;;;;;;;4.15;1.05;;;;;;;9.95;65.07;94452.59;5031339;28;20033;-60
2021/12/29 05:30:34;;;;;;;6.78;0.90;;;;;;;10.10;64.48;94444.88;5031772;28;20030;-61
2021/12/29 05:33:00;;;;;;;5.18;1.23;;;;;;;9.90;64.58;94467.59;5008173;28;20030;-60
2021/12/29 05:35:27;;;;;;;4.97;1.10;;;;;;;9.90;64.89;94448.22;5024145;28;20029;-60
2021/12/29 05:37:52;;;;;;;4.57;1.23;;;;;;;10.10;64.42;94457.38;5029882;28;20022;-60
2021/12/29 05:40:17;;;;;;;6.40;0.95;;;;;;;9.70;65.01;94460.28;5031299;28;20105;-60
2021/12/29 05:42:43;;;;;;;8.27;1.08;;;;;;;9.71;65.89;94482.28;5031825;28;20445;-60
2021/12/29 05:45:11;;;;;;;4.72;0.82;;;;;;;9.33;66.53;94461.69;5014181;28;20132;-60
2021/12/29 05:47:37;;;;;;;2.97;1.40;;;;;;;9.48;66.96;94441.88;5026439;28;20033;-60
2021/12/29 05:50:05;;;;;;;8.13;1.33;;;;;;;9.85;65.84;94481.03;5026221;28;20064;-60
2021/12/29 05:52:30;;;;;;;3.45;0.52;;;;;;;9.25;67.41;94473.84;5026650;28;20112;-60
2021/12/29 05:54:56;;;;;;;7.07;1.13;;;;;;;9.55;67.19;94471.38;5031685;28;20605;-60
2021/12/29 05:57:21;;;;;;;9.18;1.17;;;;;;;9.81;65.66;94456.19;5031629;28;20025;-60
2021/12/29 05:59:47;;;;;;;5.35;1.38;;;;;;;10.32;64.54;94470.47;5030796;28;20108;-60
2021/12/29 06:02:12;;;;;;;5.38;1.00;;;;;;;8.91;65.56;94341.22;5027898;28;20487;-60
2021/12/29 06:04:37;;;;;;;6.53;1.13;;;;;;;9.45;66.01;94421.25;5029225;28;20074;-60
2021/12/29 06:07:03;;;;;;;6.95;1.00;;;;;;;9.61;66.04;94488.69;4997400;28;20111;-60
2021/12/29 06:09:30;;;;;;;10.75;1.40;;;;;;;9.43;65.30;94452.66;5030693;28;20510;-60
2021/12/29 06:11:55;;;;;;;6.05;1.40;;;;;;;9.84;64.96;94484.78;5031407;28;20025;-60
2021/12/29 06:14:21;;;;;;;5.72;0.82;;;;;;;10.30;62.40;94482.53;5031239;28;20030;-60
2021/12/29 06:16:46;;;;;;;2.63;1.00;;;;;;;9.93;64.19;94526.47;5028365;28;20024;-60
2021/12/29 06:19:11;;;;;;;5.63;1.15;;;;;;;10.09;62.98;94483.19;5027962;28;20060;-60
2021/12/29 06:21:37;;;;;;;6.50;0.80;;;;;;;10.11;63.09;94515.53;5023144;28;20063;-60
2021/12/29 06:24:03;;;;;;;2.10;0.77;;;;;;;10.10;63.12;94515.84;5031192;28;20498;-60
2021/12/29 06:26:28;;;;;;;2.60;0.55;;;;;;;9.78;63.22;94464.81;5013146;28;20029;-61
2021/12/29 06:28:53;;;;;;;3.80;0.70;;;;;;;9.63;63.66;94497.16;5030430;28;20032;-61
2021/12/29 06:31:19;;;;;;;3.15;0.90;;;;;;;10.24;62.33;94529.00;5030799;28;20585;-61
2021/12/29 06:33:46;;;;;;;2.75;0.70;;;;;;;9.99;63.76;94519.94;5008171;28;20049;-62
2021/12/29 06:36:12;;;;;;;6.00;1.05;;;;;;;10.13;62.64;94507.22;5004788;28;20032;-61
2021/12/29 06:38:37;;;;;;;2.47;0.77;;;;;;;9.64;63.37;94482.78;5030618;28;20017;-61
2021/12/29 06:41:02;;;;;;;3.22;0.80;;;;;;;10.33;61.62;94519.09;5030264;28;20026;-61
2021/12/29 06:43:28;;;;;;;5.25;1.35;;;;;;;10.64;62.12;94532.16;5030795;28;20491;-61
2021/12/29 06:45:53;;;;;;;2.85;0.95;;;;;;;10.61;61.38;94519.50;5030623;28;20049;-62
2021/12/29 06:48:19;;;;;;;7.07;1.48;;;;;;;10.64;61.39;94540.91;5026605;28;20033;-62
2021/12/29 06:50:44;;;;;;;2.17;0.52;;;;;;;10.44;61.87;94538.97;5020585;28;20129;-61
2021/12/29 06:53:10;;;;;;;5.10;1.00;;;;;;;10.33;62.42;94530.50;5030884;28;20603;-61
2021/12/29 06:55:36;;;;;;;3.33;0.98;;;;;;;10.10;62.68;94553.84;5030499;28;20029;-61
2021/12/29 06:58:01;;;;;;;3.08;0.80;;;;;;;10.49;60.87;94553.94;5029997;28;20392;-61
2021/12/29 07:00:27;;;;;;;3.03;0.77;;;;;;;9.96;63.59;94517.91;5029483;28;20030;-63
2021/12/29 07:02:52;;;;;;;4.60;1.10;;;;;;;11.01;61.45;94577.72;5027803;28;20063;-60
2021/12/29 07:05:18;;;;;;;2.50;0.55;;;;;;;10.44;61.79;94536.31;5027736;28;20081;-61
2021/12/29 07:07:44;;;;;;;3.72;0.80;;;;;;;10.53;61.94;94560.19;5021081;28;20045;-60
2021/12/29 07:10:09;;;;;;;3.25;0.90;;;;;;;11.38;59.84;94558.25;5009661;28;20026;-61
2021/12/29 07:12:35;;;;;;;5.45;1.25;;;;;;;10.85;60.91;94566.81;5010401;28;20026;-60
2021/12/29 07:15:01;;;;;;;2.88;0.60;;;;;;;9.64;64.55;94546.50;5010631;28;20109;-60
2021/12/29 07:17:27;;;;;;;4.15;0.95;;;;;;;10.41;62.44;94576.81;5009868;28;20056;-61
2021/12/29 07:19:53;;;;;;;2.15;0.65;;;;;;;10.66;61.66;94586.59;5025347;28;20022;-60
2021/12/29 07:22:18;;;;;;;2.28;0.60;;;;;;;10.40;61.44;94551.31;5021598;28;20687;-60
2021/12/29 07:24:44;;;;;;;1.92;0.55;;;;;;;9.87;63.24;94566.50;5012328;28;20021;-61
2021/12/29 07:27:09;;;;;;;4.95;0.60;;;;;;;10.18;62.80;94594.78;5030206;28;20021;-60
2021/12/29 07:29:35;;;;;;;3.33;0.73;;;;;;;10.43;61.82;94563.97;5029444;28;20494;-62
2021/12/29 07:32:02;;;;;;;5.90;1.25;;;;;;;10.67;61.74;94609.44;5026473;28;20069;-60
2021/12/29 07:34:28;;;;;;;3.28;0.85;;;;;;;10.60;61.63;94609.16;5023712;28;20036;-61
2021/12/29 07:36:54;;;;;;;4.80;1.08;;;;;;;10.51;62.30;94615.56;5020234;28;20097;-60
2021/12/29 07:39:20;;;;;;;2.97;0.90;;;;;;;10.56;62.15;94624.16;5029267;28;20456;-61
2021/12/29 07:41:46;;;;;;;5.05;1.20;;;;;;;10.43;61.45;94565.84;5012326;28;20100;-61
2021/12/29 07:44:13;;;;;;;4.57;1.23;;;;;;;10.80;59.85;94588.25;5012031;28;20498;-62
2021/12/29 07:46:42;;;;;;;3.20;0.70;;;;;;;10.28;60.71;94538.66;5029696;28;20030;-63
2021/12/29 07:49:07;;;;;;;2.40;0.50;;;;;;;10.54;61.20;94607.72;5019595;28;20036;-61
2021/12/29 07:51:33;;;;;;;2.30;0.70;;;;;;;10.64;61.08;94603.94;5020916;28;20030;-63
2021/12/29 07:53:59;;;;;;;4.43;0.55;;;;;;;10.36;62.21;94630.13;5028897;28;20032;-63
2021/12/29 07:56:25;;;;;;;4.07;1.10;;;;;;;10.96;60.40;94621.25;5029766;28;20024;-66
2021/12/29 07:58:50;;;;;;;5.28;1.10;;;;;;;10.62;61.04;94630.88;5029310;28;20361;-65
2021/12/29 08:01:16;;;;;;;3.97;0.80;;;;;;;10.35;61.72;94604.66;5029276;28;20485;-63
2021/12/29 08:03:41;;;;;;;3.30;1.05;;;;;;;10.79;61.17;94651.31;5002921;28;20041;-64
2021/12/29 08:06:07;;;;;;;4.78;1.48;;;;;;;11.42;58.88;94636.41;5024282;28;20029;-66
2021/12/29 08:08:33;;;;;;;2.05;0.80;;;;;;;11.23;59.41;94657.31;5009735;28;20490;-64
2021/12/29 08:10:58;;;;;;;1.63;0.63;;;;;;;11.32;59.46;94651.97;5009704;28;20484;-65
2021/12/29 08:13:23;;;;;;;4.35;0.90;;;;;;;10.94;59.67;94660.69;5009857;28;20025;-65
2021/12/29 08:15:49;;;;;;;3.00;0.88;;;;;;;11.07;60.26;94681.00;5009638;28;20472;-64
2021/12/29 08:18:15;;;;;;;3.13;0.73;;;;;;;11.07;60.31;94667.72;5013604;28;20052;-64
2021/12/29 08:20:40;;;;;;;2.95;0.80;;;;;;;10.08;62.49;94674.81;5026320;28;20040;-65
2021/12/29 08:23:06;;;;;;;11.45;7.47;;;;;;;11.89;60.11;94676.28;5021501;28;20033;-65
2021/12/29 08:25:32;;;;;;;7.82;5.65;;;;;;;11.82;58.20;94670.69;5029230;28;20025;-64
2021/12/29 08:27:58;;;;;;;2.60;0.85;;;;;;;10.54;58.99;94589.13;5029205;28;20037;-63
2021/12/29 08:30:24;;;;;;;3.38;0.80;;;;;;;11.64;58.10;94663.88;5011144;28;20025;-63
2021/12/29 08:32:50;;;;;;;3.53;0.98;;;;;;;10.89;59.00;94603.09;5022867;28;20112;-63
2021/12/29 08:35:16;;;;;;;3.35;1.00;;;;;;;11.51;57.46;94630.25;5026340;28;20030;-62
2021/12/29 08:37:42;;;;;;;4.18;1.10;;;;;;;11.60;57.88;94670.94;5020757;28;20052;-62
2021/12/29 08:40:10;;;;;;;6.05;3.30;;;;;;;12.37;57.19;94683.00;5028322;28;20026;-63
2021/12/29 08:42:38;;;;;;;2.85;0.60;;;;;;;11.07;57.61;94642.97;5028904;28;20034;-62
2021/12/29 08:45:05;;;;;;;4.70;0.57;;;;;;;11.05;57.96;94648.59;5028957;28;20029;-63
2021/12/29 08:47:31;;;;;;;2.97;1.15;;;;;;;11.71;57.15;94677.44;5024233;28;20036;-65
2021/12/29 08:49:57;;;;;;;2.45;0.95;;;;;;;11.08;57.87;94677.25;5024801;28;20025;-66
2021/12/29 08:52:23;;;;;;;1.77;0.28;;;;;;;10.65;58.67;94616.19;5020631;28;20104;-66
2021/12/29 08:54:48;;;;;;;4.28;0.65;;;;;;;11.53;57.11;94686.66;5029013;28;20069;-66
2021/12/29 08:57:14;;;;;;;1.95;0.55;;;;;;;11.92;56.23;94683.63;5028592;28;20056;-65
2021/12/29 08:59:39;;;;;;;3.45;0.68;;;;;;;11.07;56.40;94624.34;5028450;28;20021;-65
2021/12/29 09:02:05;;;;;;;6.05;4.18;;;;;;;12.18;58.72;94693.34;5028801;28;20040;-62
2021/12/29 09:04:30;;;;;;;2.25;0.73;;;;;;;11.46;54.66;94596.56;5022630;28;20026;-63
2021/12/29 09:06:55;;;;;;;2.92;1.10;;;;;;;12.34;55.00;94706.91;5019270;28;20037;-63
2021/12/29 09:09:21;;;;;;;2.50;0.50;;;;;;;11.49;55.83;94670.53;5028068;28;20101;-62
2021/12/29 09:11:48;;;;;;;1.58;0.60;;;;;;;10.66;56.52;94580.50;5029753;28;20538;-62
2021/12/29 09:14:14;;;;;;;3.05;0.57;;;;;;;9.67;58.52;94531.81;5032426;28;20639;-62
2021/12/29 09:16:39;;;;;;;3.65;0.65;;;;;;;9.55;56.96;94420.94;5032127;28;20499;-62
2021/12/29 09:19:05;;;;;;;3.55;0.90;;;;;;;11.84;55.97;94671.16;5025736;28;20104;-63
2021/12/29 09:21:33;;;;;;;3.45;1.17;;;;;;;12.39;57.23;94720.03;5023649;28;20502;-62
2021/12/29 09:23:59;;;;;;;4.15;0.98;;;;;;;12.62;55.59;94717.81;5031657;28;20497;-62
2021/12/29 09:26:25;;;;;;;4.90;1.27;;;;;;;12.95;53.71;94720.53;5031980;28;20145;-62
2021/12/29 09:28:51;;;;;;;3.90;1.00;;;;;;;12.99;53.06;94727.53;5032000;28;20040;-62
2021/12/29 09:31:19;;;;;;;1.95;0.90;;;;;;;13.02;53.15;94732.22;5031837;28;20033;-62
2021/12/29 09:33:45;;;;;;;2.80;0.98;;;;;;;12.56;53.83;94695.88;5008849;28;20028;-62
2021/12/29 09:36:11;;;;;;;3.90;0.90;;;;;;;13.12;52.54;94727.56;5026053;28;20030;-62
2021/12/29 09:38:40;;;;;;;6.53;1.40;;;;;;;13.67;51.93;94724.50;5028063;28;20030;-62
2021/12/29 09:41:08;;;;;;;4.32;1.15;;;;;;;13.20;51.90;94724.81;5031672;28;20032;-62
2021/12/29 09:43:34;;;;;;;5.13;1.38;;;;;;;13.19;52.19;94711.78;5031835;28;20486;-62
2021/12/29 09:46:00;;;;;;;2.92;0.90;;;;;;;13.08;52.01;94714.09;5031854;28;20037;-61
2021/12/29 09:48:25;;;;;;;4.20;1.02;;;;;;;12.97;52.30;94724.41;5028049;28;20025;-61
2021/12/29 09:50:52;;;;;;;6.47;1.23;;;;;;;13.70;50.75;94717.69;5027003;28;20032;-61
2021/12/29 09:53:19;;;;;;;3.83;1.27;;;;;;;13.37;50.86;94705.19;5025510;28;20056;-61
2021/12/29 09:55:46;;;;;;;3.65;1.17;;;;;;;12.86;51.76;94720.59;5031415;28;20084;-60
2021/12/29 09:58:13;;;;;;;4.70;1.10;;;;;;;14.30;48.90;94716.88;5031056;28;20110;-67
2021/12/29 10:00:52;;;;;;;3.75;1.05;;;;;;;12.59;52.46;94729.94;5031120;28;20100;-63
2021/12/29 10:03:21;;;;;;;4.88;1.38;;;;;;;12.44;53.51;94730.53;5028658;28;20066;-63
2021/12/29 10:05:50;;;;;;;7.78;1.73;;;;;;;12.66;52.16;94676.03;5027748;28;20021;-63
2021/12/29 10:08:25;;;;;;;8.13;2.10;;;;;;;13.19;51.80;94752.63;5006662;28;20589;-64
2021/12/29 10:10:54;;;;;;;7.38;1.50;;;;;;;12.58;52.26;94743.56;5030918;28;20037;-63
2021/12/29 10:13:20;;;;;;;3.67;1.20;;;;;;;12.52;53.08;94732.31;5031518;28;20029;-63
2021/12/29 10:15:54;;;;;;;4.10;1.35;;;;;;;12.07;51.73;94601.53;5013972;28;20030;-64
2021/12/29 10:18:22;;;;;;;7.40;1.17;;;;;;;11.79;53.42;94657.97;5011091;28;20037;-62
2021/12/29 10:20:50;;;;;;;4.13;1.20;;;;;;;12.96;51.87;94744.22;5026600;28;20457;-63
2021/12/29 10:23:23;;;;;;;9.63;2.75;;;;;;;11.76;54.04;94666.59;5010211;28;20040;-64
2021/12/29 10:25:50;;;;;;;6.25;1.52;;;;;;;12.88;51.89;94739.72;5011517;28;20025;-65
2021/12/29 10:28:28;;;;;;;5.35;1.25;;;;;;;13.29;51.55;94762.13;5010788;28;20025;-64
2021/12/29 10:31:07;;;;;;;8.75;1.17;;;;;;;12.22;54.35;94720.94;4992996;28;20077;-61
2021/12/29 10:33:41;;;;;;;5.68;1.25;;;;;;;12.59;53.03;94747.81;5017410;28;20055;-64
2021/12/29 10:36:29;;;;;;;7.35;1.40;;;;;;;12.33;53.77;94754.09;5014809;28;20017;-63
2021/12/29 10:39:08;;;;;;;6.35;2.33;;;;;;;10.61;54.65;94562.06;5021939;28;20075;-61
2021/12/29 10:42:13;;;;;;;3.90;1.13;;;;;;;10.70;55.39;94601.91;5030644;28;20029;-63
2021/12/29 10:45:00;;;;;;;2.03;0.75;;;;;;;10.18;55.08;94544.28;5021769;28;20671;-63
2021/12/29 10:47:35;;;;;;;3.15;1.25;;;;;;;10.70;54.47;94541.53;5030475;28;20426;-64
2021/12/29 10:50:12;;;;;;;7.32;1.20;;;;;;;11.01;55.26;94676.19;5026588;28;20029;-64
2021/12/29 10:52:43;;;;;;;5.65;1.42;;;;;;;11.65;53.92;94658.22;5019984;28;20115;-64
2021/12/29 10:55:31;;;;;;;6.68;1.33;;;;;;;11.77;54.98;94753.44;5010649;28;20030;-63
2021/12/29 10:58:11;;;;;;;3.13;0.70;;;;;;;11.92;54.38;94739.59;5010716;28;20052;-63
2021/12/29 11:00:41;;;;;;;6.68;1.30;;;;;;;12.37;53.50;94752.34;5010311;28;20029;-61
2021/12/29 11:03:21;;;;;;;4.72;1.08;;;;;;;11.58;52.48;94644.63;5010283;28;20121;-61
2021/12/29 11:05:58;;;;;;;6.65;1.85;;;;;;;10.95;52.20;94515.88;5025280;28;20074;-63
2021/12/29 11:08:46;;;;;;;3.50;1.10;;;;;;;12.05;53.94;94801.03;5021290;28;20034;-61
2021/12/29 11:11:11;;;;;;;7.88;1.55;;;;;;;10.82;53.03;94519.56;5029579;28;20038;-61
2021/12/29 11:13:36;;;;;;;5.55;1.27;;;;;;;11.93;54.20;94767.84;5030090;28;20090;-62
2021/12/29 11:16:05;;;;;;;3.53;1.05;;;;;;;11.73;54.64;94768.53;5029916;28;20074;-61
2021/12/29 11:18:47;;;;;;;2.97;1.25;;;;;;;12.06;53.15;94733.25;5022614;28;20029;-62
2021/12/29 11:21:35;;;;;;;2.35;1.05;;;;;;;12.27;53.65;94787.41;5015567;28;20479;-61
2021/12/29 11:24:23;;;;;;;7.30;1.45;;;;;;;12.40;54.04;94770.38;5021199;28;20037;-63
2021/12/29 11:26:52;;;;;;;4.97;1.00;;;;;;;11.08;56.30;94711.06;5029837;28;20128;-61
2021/12/29 11:29:20;;;;;;;5.85;1.40;;;;;;;12.78;53.02;94742.78;5029259;28;20117;-61
2021/12/29 11:31:49;;;;;;;4.72;1.42;;;;;;;12.39;53.22;94728.81;5012337;28;20383;-64
2021/12/29 11:34:27;;;;;;;8.30;2.28;;;;;;;12.75;52.40;94751.47;5022108;28;20049;-61
2021/12/29 11:37:23;;;;;;;11.77;1.40;;;;;;;12.07;54.95;94753.47;5025143;28;20045;-61
2021/12/29 11:39:48;;;;;;;4.88;1.20;;;;;;;11.81;56.12;94777.56;5014254;28;20033;-62
2021/12/29 11:42:14;;;;;;;7.85;1.40;;;;;;;11.84;55.87;94775.09;5029830;28;20032;-62